sensor_id;sensor_type;location;lat;lon;timestamp;P1;durP1;ratioP1;P2;durP2;ratioP2
4023;SDS011;2026;51.002;13.668;2022-09-24T00:04:15;10.70;;;7.37;;
4023;SDS011;2026;51.002;13.668;2022-09-24T00:09:20;10.53;;;6.97;;
4023;SDS011;2026;51.002;13.668;2022-09-24T00:14:24;8.50;;;6.47;;
4023;SDS011;2026;51.002;13.668;2022-09-24T00:19:27;8.37;;;6.50;;
4023;SDS011;2026;51.002;13.668;2022-09-24T00:24:31;10.03;;;5.93;;
4023;SDS011;2026;51.002;13.668;2022-09-24T00:29:52;8.17;;;5.50;;
4023;SDS011;2026;51.002;13.668;2022-09-24T00:34:55;6.70;;;5.10;;
4023;SDS011;2026;51.002;13.668;2022-09-24T00:39:59;8.63;;;5.57;;
4023;SDS011;2026;51.002;13.668;2022-09-24T00:45:02;7.37;;;5.37;;
4023;SDS011;2026;51.002;13.668;2022-09-24T00:50:12;7.30;;;5.87;;
4023;SDS011;2026;51.002;13.668;2022-09-24T00:55:19;6.73;;;5.30;;
4023;SDS011;2026;51.002;13.668;2022-09-24T01:00:24;7.90;;;5.60;;
4023;SDS011;2026;51.002;13.668;2022-09-24T01:05:28;5.57;;;5.03;;
4023;SDS011;2026;51.002;13.668;2022-09-24T01:10:35;6.47;;;4.83;;
4023;SDS011;2026;51.002;13.668;2022-09-24T01:15:50;6.10;;;4.77;;
4023;SDS011;2026;51.002;13.668;2022-09-24T01:21:05;7.00;;;4.93;;
4023;SDS011;2026;51.002;13.668;2022-09-24T01:26:32;6.33;;;4.70;;
4023;SDS011;2026;51.002;13.668;2022-09-24T01:31:51;5.20;;;4.47;;
4023;SDS011;2026;51.002;13.668;2022-09-24T01:37:02;6.13;;;4.67;;
4023;SDS011;2026;51.002;13.668;2022-09-24T01:42:06;7.40;;;4.47;;
4023;SDS011;2026;51.002;13.668;2022-09-24T01:47:14;5.07;;;4.20;;
4023;SDS011;2026;51.002;13.668;2022-09-24T01:52:23;4.97;;;4.47;;
4023;SDS011;2026;51.002;13.668;2022-09-24T01:57:30;5.17;;;4.43;;
4023;SDS011;2026;51.002;13.668;2022-09-24T02:02:42;7.53;;;5.10;;
4023;SDS011;2026;51.002;13.668;2022-09-24T02:07:50;6.50;;;4.70;;
4023;SDS011;2026;51.002;13.668;2022-09-24T02:13:00;7.77;;;4.80;;
4023;SDS011;2026;51.002;13.668;2022-09-24T02:18:09;10.40;;;4.90;;
4023;SDS011;2026;51.002;13.668;2022-09-24T02:23:15;9.57;;;4.90;;
4023;SDS011;2026;51.002;13.668;2022-09-24T02:28:20;6.13;;;5.07;;
4023;SDS011;2026;51.002;13.668;2022-09-24T02:33:25;6.63;;;4.47;;
4023;SDS011;2026;51.002;13.668;2022-09-24T02:38:48;7.73;;;5.30;;
4023;SDS011;2026;51.002;13.668;2022-09-24T02:43:51;5.50;;;4.90;;
4023;SDS011;2026;51.002;13.668;2022-09-24T02:48:55;6.17;;;4.90;;
4023;SDS011;2026;51.002;13.668;2022-09-24T02:53:58;7.80;;;5.83;;
4023;SDS011;2026;51.002;13.668;2022-09-24T02:59:02;6.77;;;5.80;;
4023;SDS011;2026;51.002;13.668;2022-09-24T03:04:06;8.90;;;5.00;;
4023;SDS011;2026;51.002;13.668;2022-09-24T03:09:10;6.10;;;5.50;;
4023;SDS011;2026;51.002;13.668;2022-09-24T03:14:13;6.20;;;5.13;;
4023;SDS011;2026;51.002;13.668;2022-09-24T03:19:17;6.47;;;5.20;;
4023;SDS011;2026;51.002;13.668;2022-09-24T03:24:20;5.37;;;4.87;;
4023;SDS011;2026;51.002;13.668;2022-09-24T03:29:23;5.90;;;5.17;;
4023;SDS011;2026;51.002;13.668;2022-09-24T03:34:41;5.50;;;4.90;;
4023;SDS011;2026;51.002;13.668;2022-09-24T03:39:44;7.00;;;5.17;;
4023;SDS011;2026;51.002;13.668;2022-09-24T03:44:47;6.37;;;4.90;;
4023;SDS011;2026;51.002;13.668;2022-09-24T03:49:52;5.83;;;5.23;;
4023;SDS011;2026;51.002;13.668;2022-09-24T03:54:55;7.83;;;6.47;;
4023;SDS011;2026;51.002;13.668;2022-09-24T03:59:58;7.40;;;6.40;;
4023;SDS011;2026;51.002;13.668;2022-09-24T04:05:02;7.50;;;6.30;;
4023;SDS011;2026;51.002;13.668;2022-09-24T04:10:06;7.80;;;6.70;;
4023;SDS011;2026;51.002;13.668;2022-09-24T04:15:09;8.93;;;7.43;;
4023;SDS011;2026;51.002;13.668;2022-09-24T04:20:14;7.97;;;6.57;;
4023;SDS011;2026;51.002;13.668;2022-09-24T04:25:17;10.00;;;6.57;;
4023;SDS011;2026;51.002;13.668;2022-09-24T04:30:21;8.13;;;6.33;;
4023;SDS011;2026;51.002;13.668;2022-09-24T04:35:27;7.80;;;6.90;;
4023;SDS011;2026;51.002;13.668;2022-09-24T04:40:32;8.47;;;6.70;;
4023;SDS011;2026;51.002;13.668;2022-09-24T04:45:35;8.50;;;6.40;;
4023;SDS011;2026;51.002;13.668;2022-09-24T04:50:40;8.13;;;6.90;;
4023;SDS011;2026;51.002;13.668;2022-09-24T04:55:46;9.00;;;6.63;;
4023;SDS011;2026;51.002;13.668;2022-09-24T05:00:49;8.90;;;7.43;;
4023;SDS011;2026;51.002;13.668;2022-09-24T05:05:55;7.60;;;6.67;;
4023;SDS011;2026;51.002;13.668;2022-09-24T05:10:58;8.70;;;6.87;;
4023;SDS011;2026;51.002;13.668;2022-09-24T05:16:02;9.50;;;6.77;;
4023;SDS011;2026;51.002;13.668;2022-09-24T05:21:07;7.33;;;6.50;;
4023;SDS011;2026;51.002;13.668;2022-09-24T05:26:09;9.03;;;6.90;;
4023;SDS011;2026;51.002;13.668;2022-09-24T05:31:30;8.40;;;6.80;;
4023;SDS011;2026;51.002;13.668;2022-09-24T05:36:35;8.87;;;7.03;;
4023;SDS011;2026;51.002;13.668;2022-09-24T05:41:37;8.50;;;7.57;;
4023;SDS011;2026;51.002;13.668;2022-09-24T05:46:41;10.10;;;8.80;;
4023;SDS011;2026;51.002;13.668;2022-09-24T05:51:47;14.93;;;13.43;;
4023;SDS011;2026;51.002;13.668;2022-09-24T05:56:50;15.50;;;13.90;;
4023;SDS011;2026;51.002;13.668;2022-09-24T06:01:53;12.70;;;11.40;;
4023;SDS011;2026;51.002;13.668;2022-09-24T06:06:58;14.30;;;10.27;;
4023;SDS011;2026;51.002;13.668;2022-09-24T06:12:01;12.07;;;9.47;;
4023;SDS011;2026;51.002;13.668;2022-09-24T06:17:04;12.60;;;10.30;;
4023;SDS011;2026;51.002;13.668;2022-09-24T06:22:08;12.83;;;9.20;;
4023;SDS011;2026;51.002;13.668;2022-09-24T06:27:11;10.40;;;8.70;;
4023;SDS011;2026;51.002;13.668;2022-09-24T06:32:14;12.27;;;8.60;;
4023;SDS011;2026;51.002;13.668;2022-09-24T06:37:19;12.33;;;9.10;;
4023;SDS011;2026;51.002;13.668;2022-09-24T06:42:22;9.13;;;7.57;;
4023;SDS011;2026;51.002;13.668;2022-09-24T06:47:25;10.07;;;8.57;;
4023;SDS011;2026;51.002;13.668;2022-09-24T06:52:31;11.90;;;8.40;;
4023;SDS011;2026;51.002;13.668;2022-09-24T06:57:34;11.20;;;8.70;;
4023;SDS011;2026;51.002;13.668;2022-09-24T07:02:37;11.37;;;8.60;;
4023;SDS011;2026;51.002;13.668;2022-09-24T07:07:42;11.10;;;9.90;;
4023;SDS011;2026;51.002;13.668;2022-09-24T07:12:45;13.47;;;10.47;;
4023;SDS011;2026;51.002;13.668;2022-09-24T07:17:48;11.53;;;9.27;;
4023;SDS011;2026;51.002;13.668;2022-09-24T07:22:57;10.97;;;9.60;;
4023;SDS011;2026;51.002;13.668;2022-09-24T07:28:01;11.60;;;9.20;;
4023;SDS011;2026;51.002;13.668;2022-09-24T07:33:05;14.03;;;8.40;;
4023;SDS011;2026;51.002;13.668;2022-09-24T07:38:10;11.13;;;8.80;;
4023;SDS011;2026;51.002;13.668;2022-09-24T07:43:13;10.17;;;8.53;;
4023;SDS011;2026;51.002;13.668;2022-09-24T07:48:16;10.90;;;8.50;;
4023;SDS011;2026;51.002;13.668;2022-09-24T07:53:21;6.90;;;6.20;;
4023;SDS011;2026;51.002;13.668;2022-09-24T07:58:24;6.70;;;5.97;;
4023;SDS011;2026;51.002;13.668;2022-09-24T08:03:27;9.83;;;5.80;;
4023;SDS011;2026;51.002;13.668;2022-09-24T08:08:31;8.13;;;6.40;;
4023;SDS011;2026;51.002;13.668;2022-09-24T08:13:34;8.47;;;5.83;;
4023;SDS011;2026;51.002;13.668;2022-09-24T08:18:38;8.17;;;6.50;;
4023;SDS011;2026;51.002;13.668;2022-09-24T08:23:43;6.13;;;5.53;;
4023;SDS011;2026;51.002;13.668;2022-09-24T08:28:47;6.70;;;5.53;;
4023;SDS011;2026;51.002;13.668;2022-09-24T08:33:52;8.07;;;5.60;;
4023;SDS011;2026;51.002;13.668;2022-09-24T08:38:56;7.17;;;5.73;;
4023;SDS011;2026;51.002;13.668;2022-09-24T08:44:01;7.20;;;6.40;;
4023;SDS011;2026;51.002;13.668;2022-09-24T08:49:06;6.57;;;5.63;;
4023;SDS011;2026;51.002;13.668;2022-09-24T08:54:14;5.30;;;4.63;;
4023;SDS011;2026;51.002;13.668;2022-09-24T08:59:21;7.70;;;5.80;;
4023;SDS011;2026;51.002;13.668;2022-09-24T09:04:30;7.70;;;5.90;;
4023;SDS011;2026;51.002;13.668;2022-09-24T09:09:43;6.63;;;5.53;;
4023;SDS011;2026;51.002;13.668;2022-09-24T09:14:53;5.50;;;4.80;;
4023;SDS011;2026;51.002;13.668;2022-09-24T09:20:02;6.73;;;5.37;;
4023;SDS011;2026;51.002;13.668;2022-09-24T09:25:20;6.00;;;5.00;;
4023;SDS011;2026;51.002;13.668;2022-09-24T09:30:26;7.20;;;5.37;;
4023;SDS011;2026;51.002;13.668;2022-09-24T09:35:46;6.53;;;5.90;;
4023;SDS011;2026;51.002;13.668;2022-09-24T09:40:58;6.73;;;5.53;;
4023;SDS011;2026;51.002;13.668;2022-09-24T09:46:09;7.47;;;5.80;;
4023;SDS011;2026;51.002;13.668;2022-09-24T09:51:18;6.30;;;5.70;;
4023;SDS011;2026;51.002;13.668;2022-09-24T09:56:25;9.13;;;7.83;;
4023;SDS011;2026;51.002;13.668;2022-09-24T10:01:31;7.07;;;5.70;;
4023;SDS011;2026;51.002;13.668;2022-09-24T10:06:36;9.20;;;5.87;;
4023;SDS011;2026;51.002;13.668;2022-09-24T10:11:40;7.33;;;5.83;;
4023;SDS011;2026;51.002;13.668;2022-09-24T10:16:44;8.73;;;6.23;;
4023;SDS011;2026;51.002;13.668;2022-09-24T10:21:54;8.67;;;5.80;;
4023;SDS011;2026;51.002;13.668;2022-09-24T10:27:08;5.57;;;5.00;;
4023;SDS011;2026;51.002;13.668;2022-09-24T10:32:16;5.73;;;4.70;;
4023;SDS011;2026;51.002;13.668;2022-09-24T10:37:21;5.40;;;4.90;;
4023;SDS011;2026;51.002;13.668;2022-09-24T10:42:26;5.50;;;5.00;;
4023;SDS011;2026;51.002;13.668;2022-09-24T10:47:33;7.60;;;5.30;;
4023;SDS011;2026;51.002;13.668;2022-09-24T10:52:45;5.53;;;5.03;;
4023;SDS011;2026;51.002;13.668;2022-09-24T10:57:58;5.53;;;4.97;;
4023;SDS011;2026;51.002;13.668;2022-09-24T11:03:14;6.20;;;5.60;;
4023;SDS011;2026;51.002;13.668;2022-09-24T11:08:45;5.80;;;4.60;;
4023;SDS011;2026;51.002;13.668;2022-09-24T11:14:04;7.10;;;5.97;;
4023;SDS011;2026;51.002;13.668;2022-09-24T11:19:23;6.17;;;5.43;;
4023;SDS011;2026;51.002;13.668;2022-09-24T11:24:47;5.97;;;4.93;;
4023;SDS011;2026;51.002;13.668;2022-09-24T11:30:06;7.20;;;4.70;;
4023;SDS011;2026;51.002;13.668;2022-09-24T11:35:22;5.80;;;4.90;;
4023;SDS011;2026;51.002;13.668;2022-09-24T11:40:44;4.73;;;4.33;;
4023;SDS011;2026;51.002;13.668;2022-09-24T11:46:06;5.00;;;4.30;;
4023;SDS011;2026;51.002;13.668;2022-09-24T11:51:18;9.23;;;4.93;;
4023;SDS011;2026;51.002;13.668;2022-09-24T11:56:30;4.70;;;4.20;;
4023;SDS011;2026;51.002;13.668;2022-09-24T12:01:38;6.27;;;3.93;;
4023;SDS011;2026;51.002;13.668;2022-09-24T12:06:49;6.47;;;4.50;;
4023;SDS011;2026;51.002;13.668;2022-09-24T12:11:57;5.03;;;4.53;;
4023;SDS011;2026;51.002;13.668;2022-09-24T12:17:08;4.80;;;4.30;;
4023;SDS011;2026;51.002;13.668;2022-09-24T12:22:18;5.33;;;4.50;;
4023;SDS011;2026;51.002;13.668;2022-09-24T12:27:26;4.10;;;3.77;;
4023;SDS011;2026;51.002;13.668;2022-09-24T12:32:37;4.40;;;4.00;;
4023;SDS011;2026;51.002;13.668;2022-09-24T12:37:58;4.10;;;3.80;;
4023;SDS011;2026;51.002;13.668;2022-09-24T12:43:08;3.60;;;3.30;;
4023;SDS011;2026;51.002;13.668;2022-09-24T12:48:21;9.23;;;4.67;;
4023;SDS011;2026;51.002;13.668;2022-09-24T12:53:28;9.63;;;4.27;;
4023;SDS011;2026;51.002;13.668;2022-09-24T12:58:37;4.33;;;3.90;;
4023;SDS011;2026;51.002;13.668;2022-09-24T13:03:43;6.10;;;4.00;;
4023;SDS011;2026;51.002;13.668;2022-09-24T13:08:48;4.83;;;4.13;;
4023;SDS011;2026;51.002;13.668;2022-09-24T13:13:56;5.30;;;4.10;;
4023;SDS011;2026;51.002;13.668;2022-09-24T13:19:05;4.60;;;4.13;;
4023;SDS011;2026;51.002;13.668;2022-09-24T13:24:25;4.57;;;4.17;;
4023;SDS011;2026;51.002;13.668;2022-09-24T13:29:35;5.53;;;4.13;;
4023;SDS011;2026;51.002;13.668;2022-09-24T13:34:42;5.67;;;3.83;;
4023;SDS011;2026;51.002;13.668;2022-09-24T13:39:47;7.57;;;4.07;;
4023;SDS011;2026;51.002;13.668;2022-09-24T13:44:57;4.87;;;4.13;;
4023;SDS011;2026;51.002;13.668;2022-09-24T13:50:13;7.10;;;4.27;;
4023;SDS011;2026;51.002;13.668;2022-09-24T13:55:21;7.13;;;4.20;;
4023;SDS011;2026;51.002;13.668;2022-09-24T14:00:26;4.80;;;4.30;;
4023;SDS011;2026;51.002;13.668;2022-09-24T14:05:34;4.60;;;4.20;;
4023;SDS011;2026;51.002;13.668;2022-09-24T14:10:38;12.43;;;4.53;;
4023;SDS011;2026;51.002;13.668;2022-09-24T14:15:51;4.53;;;4.13;;
4023;SDS011;2026;51.002;13.668;2022-09-24T14:20:58;6.10;;;4.43;;
4023;SDS011;2026;51.002;13.668;2022-09-24T14:26:06;3.97;;;3.57;;
4023;SDS011;2026;51.002;13.668;2022-09-24T14:31:14;4.10;;;3.70;;
4023;SDS011;2026;51.002;13.668;2022-09-24T14:36:18;6.50;;;4.10;;
4023;SDS011;2026;51.002;13.668;2022-09-24T14:41:28;4.50;;;4.10;;
4023;SDS011;2026;51.002;13.668;2022-09-24T14:46:34;5.10;;;4.57;;
4023;SDS011;2026;51.002;13.668;2022-09-24T14:51:49;4.07;;;3.70;;
4023;SDS011;2026;51.002;13.668;2022-09-24T14:56:53;7.30;;;5.70;;
4023;SDS011;2026;51.002;13.668;2022-09-24T15:02:03;8.50;;;6.73;;
4023;SDS011;2026;51.002;13.668;2022-09-24T15:07:20;15.13;;;12.50;;
4023;SDS011;2026;51.002;13.668;2022-09-24T15:12:26;16.10;;;13.10;;
4023;SDS011;2026;51.002;13.668;2022-09-24T15:17:32;13.03;;;10.93;;
4023;SDS011;2026;51.002;13.668;2022-09-24T15:22:38;7.07;;;6.10;;
4023;SDS011;2026;51.002;13.668;2022-09-24T15:27:41;9.20;;;8.30;;
4023;SDS011;2026;51.002;13.668;2022-09-24T15:32:44;7.40;;;6.60;;
4023;SDS011;2026;51.002;13.668;2022-09-24T15:37:49;5.20;;;4.70;;
4023;SDS011;2026;51.002;13.668;2022-09-24T15:42:52;4.70;;;4.00;;
4023;SDS011;2026;51.002;13.668;2022-09-24T15:47:55;4.90;;;4.50;;
4023;SDS011;2026;51.002;13.668;2022-09-24T15:53:00;9.20;;;8.13;;
4023;SDS011;2026;51.002;13.668;2022-09-24T15:58:04;13.13;;;8.73;;
4023;SDS011;2026;51.002;13.668;2022-09-24T16:03:21;6.70;;;5.93;;
4023;SDS011;2026;51.002;13.668;2022-09-24T16:08:27;8.03;;;6.40;;
4023;SDS011;2026;51.002;13.668;2022-09-24T16:13:30;18.47;;;14.30;;
4023;SDS011;2026;51.002;13.668;2022-09-24T16:18:35;78.80;;;55.93;;
4023;SDS011;2026;51.002;13.668;2022-09-24T16:23:41;135.93;;;86.77;;
4023;SDS011;2026;51.002;13.668;2022-09-24T16:28:44;29.10;;;21.10;;
4023;SDS011;2026;51.002;13.668;2022-09-24T16:33:47;29.90;;;19.50;;
4023;SDS011;2026;51.002;13.668;2022-09-24T16:38:52;61.97;;;39.77;;
4023;SDS011;2026;51.002;13.668;2022-09-24T16:43:55;30.50;;;22.83;;
4023;SDS011;2026;51.002;13.668;2022-09-24T16:48:59;16.50;;;14.20;;
4023;SDS011;2026;51.002;13.668;2022-09-24T16:54:03;11.33;;;9.37;;
4023;SDS011;2026;51.002;13.668;2022-09-24T16:59:08;21.60;;;14.37;;
4023;SDS011;2026;51.002;13.668;2022-09-24T17:04:11;35.23;;;31.50;;
4023;SDS011;2026;51.002;13.668;2022-09-24T17:09:16;29.27;;;21.67;;
4023;SDS011;2026;51.002;13.668;2022-09-24T17:14:36;97.10;;;57.83;;
4023;SDS011;2026;51.002;13.668;2022-09-24T17:19:39;34.90;;;27.63;;
4023;SDS011;2026;51.002;13.668;2022-09-24T17:24:43;27.33;;;21.40;;
4023;SDS011;2026;51.002;13.668;2022-09-24T17:29:46;17.23;;;15.50;;
4023;SDS011;2026;51.002;13.668;2022-09-24T17:34:49;18.20;;;11.80;;
4023;SDS011;2026;51.002;13.668;2022-09-24T17:39:54;15.10;;;12.70;;
4023;SDS011;2026;51.002;13.668;2022-09-24T17:44:57;19.90;;;17.73;;
4023;SDS011;2026;51.002;13.668;2022-09-24T17:50:00;18.63;;;16.73;;
4023;SDS011;2026;51.002;13.668;2022-09-24T17:55:05;41.70;;;33.70;;
4023;SDS011;2026;51.002;13.668;2022-09-24T18:00:09;35.00;;;30.27;;
4023;SDS011;2026;51.002;13.668;2022-09-24T18:05:13;18.70;;;16.80;;
4023;SDS011;2026;51.002;13.668;2022-09-24T18:10:17;25.03;;;21.47;;
4023;SDS011;2026;51.002;13.668;2022-09-24T18:15:20;27.47;;;24.53;;
4023;SDS011;2026;51.002;13.668;2022-09-24T18:20:23;17.83;;;14.73;;
4023;SDS011;2026;51.002;13.668;2022-09-24T18:25:28;15.37;;;12.40;;
4023;SDS011;2026;51.002;13.668;2022-09-24T18:30:31;14.30;;;11.00;;
4023;SDS011;2026;51.002;13.668;2022-09-24T18:35:34;14.53;;;11.00;;
4023;SDS011;2026;51.002;13.668;2022-09-24T18:40:39;16.07;;;12.50;;
4023;SDS011;2026;51.002;13.668;2022-09-24T18:45:42;18.00;;;14.77;;
4023;SDS011;2026;51.002;13.668;2022-09-24T18:50:45;19.27;;;16.37;;
4023;SDS011;2026;51.002;13.668;2022-09-24T18:55:49;26.33;;;17.67;;
4023;SDS011;2026;51.002;13.668;2022-09-24T19:00:56;23.53;;;18.77;;
4023;SDS011;2026;51.002;13.668;2022-09-24T19:06:00;25.27;;;19.60;;
4023;SDS011;2026;51.002;13.668;2022-09-24T19:11:07;38.30;;;27.33;;
4023;SDS011;2026;51.002;13.668;2022-09-24T19:16:14;40.17;;;27.83;;
4023;SDS011;2026;51.002;13.668;2022-09-24T19:21:18;52.80;;;35.20;;
4023;SDS011;2026;51.002;13.668;2022-09-24T19:26:25;37.30;;;25.67;;
4023;SDS011;2026;51.002;13.668;2022-09-24T19:31:31;20.87;;;16.20;;
4023;SDS011;2026;51.002;13.668;2022-09-24T19:36:36;28.27;;;20.30;;
4023;SDS011;2026;51.002;13.668;2022-09-24T19:41:46;20.53;;;16.43;;
4023;SDS011;2026;51.002;13.668;2022-09-24T19:46:53;23.90;;;17.00;;
4023;SDS011;2026;51.002;13.668;2022-09-24T19:51:56;27.70;;;22.07;;
4023;SDS011;2026;51.002;13.668;2022-09-24T19:57:00;22.43;;;17.67;;
4023;SDS011;2026;51.002;13.668;2022-09-24T20:02:03;17.23;;;14.70;;
4023;SDS011;2026;51.002;13.668;2022-09-24T20:07:06;16.70;;;13.87;;
4023;SDS011;2026;51.002;13.668;2022-09-24T20:12:10;15.90;;;13.20;;
4023;SDS011;2026;51.002;13.668;2022-09-24T20:17:17;19.17;;;13.90;;
4023;SDS011;2026;51.002;13.668;2022-09-24T20:22:20;33.80;;;21.23;;
4023;SDS011;2026;51.002;13.668;2022-09-24T20:27:24;22.70;;;17.20;;
4023;SDS011;2026;51.002;13.668;2022-09-24T20:32:45;19.47;;;14.97;;
4023;SDS011;2026;51.002;13.668;2022-09-24T20:37:48;19.13;;;13.10;;
4023;SDS011;2026;51.002;13.668;2022-09-24T20:42:52;18.83;;;14.43;;
4023;SDS011;2026;51.002;13.668;2022-09-24T20:47:55;23.57;;;13.73;;
4023;SDS011;2026;51.002;13.668;2022-09-24T20:52:58;16.37;;;12.27;;
4023;SDS011;2026;51.002;13.668;2022-09-24T20:58:03;13.00;;;11.60;;
4023;SDS011;2026;51.002;13.668;2022-09-24T21:03:06;14.73;;;11.70;;
4023;SDS011;2026;51.002;13.668;2022-09-24T21:08:29;17.30;;;12.43;;
4023;SDS011;2026;51.002;13.668;2022-09-24T21:13:37;17.77;;;12.27;;
4023;SDS011;2026;51.002;13.668;2022-09-24T21:18:41;13.23;;;11.33;;
4023;SDS011;2026;51.002;13.668;2022-09-24T21:23:46;18.90;;;12.77;;
4023;SDS011;2026;51.002;13.668;2022-09-24T21:28:51;15.37;;;11.50;;
4023;SDS011;2026;51.002;13.668;2022-09-24T21:33:56;17.53;;;14.53;;
4023;SDS011;2026;51.002;13.668;2022-09-24T21:39:00;19.20;;;16.00;;
4023;SDS011;2026;51.002;13.668;2022-09-24T21:44:05;18.87;;;15.20;;
4023;SDS011;2026;51.002;13.668;2022-09-24T21:49:10;21.53;;;15.60;;
4023;SDS011;2026;51.002;13.668;2022-09-24T21:54:14;21.63;;;18.10;;
4023;SDS011;2026;51.002;13.668;2022-09-24T21:59:20;24.00;;;19.20;;
4023;SDS011;2026;51.002;13.668;2022-09-24T22:04:41;24.37;;;20.17;;
4023;SDS011;2026;51.002;13.668;2022-09-24T22:09:44;26.00;;;20.10;;
4023;SDS011;2026;51.002;13.668;2022-09-24T22:14:49;25.73;;;20.27;;
4023;SDS011;2026;51.002;13.668;2022-09-24T22:19:52;25.30;;;19.90;;
4023;SDS011;2026;51.002;13.668;2022-09-24T22:24:55;25.57;;;19.83;;
4023;SDS011;2026;51.002;13.668;2022-09-24T22:30:00;22.27;;;18.93;;
4023;SDS011;2026;51.002;13.668;2022-09-24T22:35:03;25.03;;;19.70;;
4023;SDS011;2026;51.002;13.668;2022-09-24T22:40:24;22.83;;;20.03;;
4023;SDS011;2026;51.002;13.668;2022-09-24T22:45:28;22.10;;;18.80;;
4023;SDS011;2026;51.002;13.668;2022-09-24T22:50:31;24.30;;;19.03;;
4023;SDS011;2026;51.002;13.668;2022-09-24T22:55:34;21.50;;;17.00;;
4023;SDS011;2026;51.002;13.668;2022-09-24T23:00:38;23.60;;;17.40;;
4023;SDS011;2026;51.002;13.668;2022-09-24T23:05:41;21.37;;;17.40;;
4023;SDS011;2026;51.002;13.668;2022-09-24T23:10:45;20.50;;;17.60;;
4023;SDS011;2026;51.002;13.668;2022-09-24T23:15:49;25.60;;;20.30;;
4023;SDS011;2026;51.002;13.668;2022-09-24T23:20:52;23.80;;;18.80;;
4023;SDS011;2026;51.002;13.668;2022-09-24T23:25:59;22.27;;;19.67;;
4023;SDS011;2026;51.002;13.668;2022-09-24T23:31:06;24.70;;;20.37;;
4023;SDS011;2026;51.002;13.668;2022-09-24T23:36:12;24.57;;;18.90;;
4023;SDS011;2026;51.002;13.668;2022-09-24T23:41:16;20.90;;;17.80;;
4023;SDS011;2026;51.002;13.668;2022-09-24T23:46:21;20.30;;;17.47;;
4023;SDS011;2026;51.002;13.668;2022-09-24T23:51:24;22.73;;;16.00;;
4023;SDS011;2026;51.002;13.668;2022-09-24T23:56:27;21.13;;;15.90;;
